sensor_id;sensor_type;location;lat;lon;timestamp;P1;durP1;ratioP1;P2;durP2;ratioP2
59442;SDS011;45247;47.466;19.004;2022-08-18T16:31:32;4.53;;;2.30;;
59442;SDS011;45247;47.466;19.004;2022-08-18T16:34:01;12.73;;;2.60;;
59442;SDS011;45247;47.466;19.004;2022-08-18T16:36:29;16.08;;;3.38;;
59442;SDS011;45247;47.466;19.004;2022-08-18T16:38:57;9.63;;;2.83;;
59442;SDS011;45247;47.466;19.004;2022-08-18T16:41:26;6.47;;;2.40;;
59442;SDS011;45247;47.466;19.004;2022-08-18T16:43:54;7.75;;;2.80;;
59442;SDS011;45247;47.466;19.004;2022-08-18T16:46:23;6.75;;;2.75;;
59442;SDS011;45247;47.466;19.004;2022-08-18T16:48:54;5.25;;;2.60;;
59442;SDS011;45247;47.466;19.004;2022-08-18T16:51:25;7.00;;;2.83;;
59442;SDS011;45247;47.466;19.004;2022-08-18T16:53:54;8.10;;;2.80;;
59442;SDS011;45247;47.466;19.004;2022-08-18T16:56:24;7.03;;;2.90;;
59442;SDS011;45247;47.466;19.004;2022-08-18T16:58:54;9.93;;;3.28;;
59442;SDS011;45247;47.466;19.004;2022-08-18T17:01:41;13.77;;;3.33;;
59442;SDS011;45247;47.466;19.004;2022-08-18T17:04:29;9.65;;;3.08;;
59442;SDS011;45247;47.466;19.004;2022-08-18T17:07:00;8.90;;;3.10;;
59442;SDS011;45247;47.466;19.004;2022-08-18T17:09:30;9.23;;;2.63;;
59442;SDS011;45247;47.466;19.004;2022-08-18T17:11:59;8.93;;;3.50;;
59442;SDS011;45247;47.466;19.004;2022-08-18T17:14:29;8.73;;;3.30;;
59442;SDS011;45247;47.466;19.004;2022-08-18T17:16:58;10.45;;;3.50;;
59442;SDS011;45247;47.466;19.004;2022-08-18T17:19:29;6.88;;;2.97;;
59442;SDS011;45247;47.466;19.004;2022-08-18T17:21:59;9.60;;;3.75;;
59442;SDS011;45247;47.466;19.004;2022-08-18T17:24:28;14.70;;;3.65;;
59442;SDS011;45247;47.466;19.004;2022-08-18T17:27:04;12.98;;;3.90;;
59442;SDS011;45247;47.466;19.004;2022-08-18T17:29:56;20.20;;;4.60;;
59442;SDS011;45247;47.466;19.004;2022-08-18T17:32:30;13.93;;;3.80;;
59442;SDS011;45247;47.466;19.004;2022-08-18T17:35:10;12.38;;;3.78;;
59442;SDS011;45247;47.466;19.004;2022-08-18T17:37:41;9.00;;;3.47;;
59442;SDS011;45247;47.466;19.004;2022-08-18T17:40:16;14.00;;;3.30;;
59442;SDS011;45247;47.466;19.004;2022-08-18T17:42:47;11.27;;;3.60;;
59442;SDS011;45247;47.466;19.004;2022-08-18T17:45:19;11.30;;;3.58;;
59442;SDS011;45247;47.466;19.004;2022-08-18T17:47:50;13.80;;;3.45;;
59442;SDS011;45247;47.466;19.004;2022-08-18T17:50:25;11.32;;;3.75;;
59442;SDS011;45247;47.466;19.004;2022-08-18T17:53:14;13.10;;;3.23;;
59442;SDS011;45247;47.466;19.004;2022-08-18T17:55:44;9.40;;;3.60;;
59442;SDS011;45247;47.466;19.004;2022-08-18T17:58:18;18.40;;;3.67;;
59442;SDS011;45247;47.466;19.004;2022-08-18T18:00:51;9.40;;;3.65;;
59442;SDS011;45247;47.466;19.004;2022-08-18T18:03:19;9.55;;;3.70;;
59442;SDS011;45247;47.466;19.004;2022-08-18T18:05:51;13.60;;;3.67;;
59442;SDS011;45247;47.466;19.004;2022-08-18T18:11:14;11.35;;;3.78;;
59442;SDS011;45247;47.466;19.004;2022-08-18T18:13:42;17.25;;;4.57;;
59442;SDS011;45247;47.466;19.004;2022-08-18T18:16:19;11.32;;;4.30;;
59442;SDS011;45247;47.466;19.004;2022-08-18T18:18:55;14.93;;;4.10;;
59442;SDS011;45247;47.466;19.004;2022-08-18T18:21:29;12.80;;;4.35;;
59442;SDS011;45247;47.466;19.004;2022-08-18T18:24:21;13.55;;;3.70;;
59442;SDS011;45247;47.466;19.004;2022-08-18T18:26:56;11.10;;;3.55;;
59442;SDS011;45247;47.466;19.004;2022-08-18T18:29:26;12.98;;;3.65;;
59442;SDS011;45247;47.466;19.004;2022-08-18T18:32:04;13.98;;;4.35;;
59442;SDS011;45247;47.466;19.004;2022-08-18T18:35:01;20.25;;;4.38;;
59442;SDS011;45247;47.466;19.004;2022-08-18T18:37:43;13.85;;;3.80;;
59442;SDS011;45247;47.466;19.004;2022-08-18T18:40:22;6.13;;;3.60;;
59442;SDS011;45247;47.466;19.004;2022-08-18T18:42:54;11.75;;;3.67;;
59442;SDS011;45247;47.466;19.004;2022-08-18T18:45:25;10.82;;;4.32;;
59442;SDS011;45247;47.466;19.004;2022-08-18T18:48:01;10.88;;;3.65;;
59442;SDS011;45247;47.466;19.004;2022-08-18T18:50:36;10.68;;;3.92;;
59442;SDS011;45247;47.466;19.004;2022-08-18T18:53:26;10.60;;;3.97;;
59442;SDS011;45247;47.466;19.004;2022-08-18T18:56:04;5.53;;;3.50;;
59442;SDS011;45247;47.466;19.004;2022-08-18T18:58:43;12.55;;;3.65;;
59442;SDS011;45247;47.466;19.004;2022-08-18T19:01:23;9.45;;;3.45;;
59442;SDS011;45247;47.466;19.004;2022-08-18T19:04:01;6.65;;;3.95;;
59442;SDS011;45247;47.466;19.004;2022-08-18T19:06:39;9.60;;;3.78;;
59442;SDS011;45247;47.466;19.004;2022-08-18T19:09:17;11.95;;;3.88;;
59442;SDS011;45247;47.466;19.004;2022-08-18T19:11:54;6.38;;;3.42;;
59442;SDS011;45247;47.466;19.004;2022-08-18T19:14:29;11.75;;;4.05;;
59442;SDS011;45247;47.466;19.004;2022-08-18T19:17:03;8.25;;;3.78;;
59442;SDS011;45247;47.466;19.004;2022-08-18T19:19:40;8.30;;;3.40;;
59442;SDS011;45247;47.466;19.004;2022-08-18T19:22:15;12.30;;;4.05;;
59442;SDS011;45247;47.466;19.004;2022-08-18T19:24:51;9.70;;;3.83;;
59442;SDS011;45247;47.466;19.004;2022-08-18T19:27:27;10.25;;;3.88;;
59442;SDS011;45247;47.466;19.004;2022-08-18T19:30:04;8.90;;;3.53;;
59442;SDS011;45247;47.466;19.004;2022-08-18T19:32:40;12.23;;;4.30;;
59442;SDS011;45247;47.466;19.004;2022-08-18T19:35:13;8.23;;;4.18;;
59442;SDS011;45247;47.466;19.004;2022-08-18T19:37:54;9.02;;;4.22;;
59442;SDS011;45247;47.466;19.004;2022-08-18T19:40:33;11.38;;;4.82;;
59442;SDS011;45247;47.466;19.004;2022-08-18T19:43:11;7.75;;;4.50;;
59442;SDS011;45247;47.466;19.004;2022-08-18T19:45:53;7.05;;;4.45;;
59442;SDS011;45247;47.466;19.004;2022-08-18T19:48:27;7.60;;;4.80;;
59442;SDS011;45247;47.466;19.004;2022-08-18T19:51:05;7.85;;;4.43;;
59442;SDS011;45247;47.466;19.004;2022-08-18T19:53:42;11.93;;;4.45;;
59442;SDS011;45247;47.466;19.004;2022-08-18T19:56:26;11.30;;;5.18;;
59442;SDS011;45247;47.466;19.004;2022-08-18T19:59:10;10.88;;;4.78;;
59442;SDS011;45247;47.466;19.004;2022-08-18T20:02:10;8.38;;;4.85;;
59442;SDS011;45247;47.466;19.004;2022-08-18T20:04:56;11.30;;;5.10;;
59442;SDS011;45247;47.466;19.004;2022-08-18T20:07:49;12.82;;;4.65;;
59442;SDS011;45247;47.466;19.004;2022-08-18T20:10:33;10.02;;;5.38;;
59442;SDS011;45247;47.466;19.004;2022-08-18T20:13:25;12.95;;;5.43;;
59442;SDS011;45247;47.466;19.004;2022-08-18T20:16:13;14.23;;;5.10;;
59442;SDS011;45247;47.466;19.004;2022-08-18T20:25:00;10.52;;;5.65;;
59442;SDS011;45247;47.466;19.004;2022-08-18T20:27:33;8.30;;;5.10;;
59442;SDS011;45247;47.466;19.004;2022-08-18T20:33:16;15.48;;;5.88;;
59442;SDS011;45247;47.466;19.004;2022-08-18T20:38:48;10.40;;;5.45;;
59442;SDS011;45247;47.466;19.004;2022-08-18T20:41:32;7.57;;;5.18;;
59442;SDS011;45247;47.466;19.004;2022-08-18T20:50:35;11.80;;;5.82;;
59442;SDS011;45247;47.466;19.004;2022-08-18T20:53:14;11.48;;;5.57;;
59442;SDS011;45247;47.466;19.004;2022-08-18T20:55:56;9.45;;;5.38;;
59442;SDS011;45247;47.466;19.004;2022-08-18T20:58:54;8.15;;;5.78;;
59442;SDS011;45247;47.466;19.004;2022-08-18T21:01:34;14.43;;;5.78;;
59442;SDS011;45247;47.466;19.004;2022-08-18T21:04:04;14.68;;;6.30;;
59442;SDS011;45247;47.466;19.004;2022-08-18T21:06:35;8.70;;;5.72;;
59442;SDS011;45247;47.466;19.004;2022-08-18T21:09:10;10.63;;;5.68;;
59442;SDS011;45247;47.466;19.004;2022-08-18T21:11:44;6.72;;;5.72;;
59442;SDS011;45247;47.466;19.004;2022-08-18T21:14:22;9.13;;;5.47;;
59442;SDS011;45247;47.466;19.004;2022-08-18T21:16:55;8.85;;;5.65;;
59442;SDS011;45247;47.466;19.004;2022-08-18T21:19:25;11.27;;;5.93;;
59442;SDS011;45247;47.466;19.004;2022-08-18T21:21:58;11.80;;;5.63;;
59442;SDS011;45247;47.466;19.004;2022-08-18T21:24:30;10.13;;;6.13;;
59442;SDS011;45247;47.466;19.004;2022-08-18T21:27:02;11.75;;;6.32;;
59442;SDS011;45247;47.466;19.004;2022-08-18T21:29:31;9.82;;;5.65;;
59442;SDS011;45247;47.466;19.004;2022-08-18T21:32:16;10.65;;;6.00;;
59442;SDS011;45247;47.466;19.004;2022-08-18T21:34:47;8.30;;;7.15;;
59442;SDS011;45247;47.466;19.004;2022-08-18T21:37:17;14.32;;;6.20;;
59442;SDS011;45247;47.466;19.004;2022-08-18T21:39:51;8.00;;;5.72;;
59442;SDS011;45247;47.466;19.004;2022-08-18T21:42:22;11.70;;;6.35;;
59442;SDS011;45247;47.466;19.004;2022-08-18T21:44:54;7.97;;;6.00;;
59442;SDS011;45247;47.466;19.004;2022-08-18T21:47:26;10.98;;;6.03;;
59442;SDS011;45247;47.466;19.004;2022-08-18T21:49:58;9.00;;;6.20;;
59442;SDS011;45247;47.466;19.004;2022-08-18T21:52:29;9.77;;;6.47;;
59442;SDS011;45247;47.466;19.004;2022-08-18T21:54:59;13.25;;;6.25;;
59442;SDS011;45247;47.466;19.004;2022-08-18T22:00:23;7.07;;;5.25;;
59442;SDS011;45247;47.466;19.004;2022-08-18T22:03:10;11.38;;;6.15;;
59442;SDS011;45247;47.466;19.004;2022-08-18T22:05:45;11.45;;;6.03;;
59442;SDS011;45247;47.466;19.004;2022-08-18T22:08:27;10.95;;;5.70;;
59442;SDS011;45247;47.466;19.004;2022-08-18T22:11:07;12.98;;;6.90;;
59442;SDS011;45247;47.466;19.004;2022-08-18T22:14:31;11.15;;;6.50;;
59442;SDS011;45247;47.466;19.004;2022-08-18T22:17:25;11.57;;;6.47;;
59442;SDS011;45247;47.466;19.004;2022-08-18T22:22:58;8.40;;;5.88;;
59442;SDS011;45247;47.466;19.004;2022-08-18T22:25:48;13.70;;;6.50;;
59442;SDS011;45247;47.466;19.004;2022-08-18T22:28:19;8.73;;;6.47;;
59442;SDS011;45247;47.466;19.004;2022-08-18T22:30:48;8.25;;;6.55;;
59442;SDS011;45247;47.466;19.004;2022-08-18T22:33:16;12.93;;;6.50;;
59442;SDS011;45247;47.466;19.004;2022-08-18T22:35:51;10.88;;;6.10;;
59442;SDS011;45247;47.466;19.004;2022-08-18T22:38:20;10.30;;;6.20;;
59442;SDS011;45247;47.466;19.004;2022-08-18T22:40:49;12.27;;;6.95;;
59442;SDS011;45247;47.466;19.004;2022-08-18T22:43:18;8.25;;;6.13;;
59442;SDS011;45247;47.466;19.004;2022-08-18T22:45:47;9.77;;;6.63;;
59442;SDS011;45247;47.466;19.004;2022-08-18T22:48:15;9.45;;;6.18;;
59442;SDS011;45247;47.466;19.004;2022-08-18T22:50:43;15.05;;;7.60;;
59442;SDS011;45247;47.466;19.004;2022-08-18T22:53:12;11.40;;;6.20;;
59442;SDS011;45247;47.466;19.004;2022-08-18T22:55:41;11.63;;;6.35;;
59442;SDS011;45247;47.466;19.004;2022-08-18T22:58:11;7.30;;;6.13;;
59442;SDS011;45247;47.466;19.004;2022-08-18T23:00:46;11.85;;;7.25;;
59442;SDS011;45247;47.466;19.004;2022-08-18T23:03:14;11.40;;;6.05;;
59442;SDS011;45247;47.466;19.004;2022-08-18T23:05:42;9.40;;;5.88;;
59442;SDS011;45247;47.466;19.004;2022-08-18T23:08:10;8.13;;;6.18;;
59442;SDS011;45247;47.466;19.004;2022-08-18T23:10:40;9.68;;;6.13;;
59442;SDS011;45247;47.466;19.004;2022-08-18T23:13:08;10.50;;;6.18;;
59442;SDS011;45247;47.466;19.004;2022-08-18T23:15:38;9.45;;;7.00;;
59442;SDS011;45247;47.466;19.004;2022-08-18T23:18:13;7.93;;;6.90;;
59442;SDS011;45247;47.466;19.004;2022-08-18T23:20:44;13.18;;;6.22;;
59442;SDS011;45247;47.466;19.004;2022-08-18T23:23:14;9.23;;;6.60;;
59442;SDS011;45247;47.466;19.004;2022-08-18T23:25:43;12.57;;;6.95;;
59442;SDS011;45247;47.466;19.004;2022-08-18T23:28:13;10.88;;;6.63;;
59442;SDS011;45247;47.466;19.004;2022-08-18T23:30:42;14.77;;;7.25;;
59442;SDS011;45247;47.466;19.004;2022-08-18T23:33:11;7.78;;;6.18;;
59442;SDS011;45247;47.466;19.004;2022-08-18T23:35:41;9.43;;;6.78;;
59442;SDS011;45247;47.466;19.004;2022-08-18T23:38:10;11.07;;;6.50;;
59442;SDS011;45247;47.466;19.004;2022-08-18T23:40:41;7.80;;;6.38;;
59442;SDS011;45247;47.466;19.004;2022-08-18T23:43:11;17.67;;;6.50;;
59442;SDS011;45247;47.466;19.004;2022-08-18T23:45:39;12.40;;;6.90;;
59442;SDS011;45247;47.466;19.004;2022-08-18T23:48:15;12.02;;;6.45;;
59442;SDS011;45247;47.466;19.004;2022-08-18T23:50:46;9.48;;;6.55;;
59442;SDS011;45247;47.466;19.004;2022-08-18T23:53:15;9.65;;;7.03;;
59442;SDS011;45247;47.466;19.004;2022-08-18T23:55:44;10.95;;;6.78;;
59442;SDS011;45247;47.466;19.004;2022-08-18T23:58:12;8.98;;;6.95;;
